Time,TemperatureF,DewpointF,PressureIn,WindDirection,WindDirectionDegrees,WindSpeedMPH,WindSpeedGustMPH,Humidity,HourlyPrecipIn,Conditions,Clouds,dailyrainin,SoftwareType,DateUTC
2013-05-21 00:03:00,74.5,69.8,29.98,ESE,113,2.5,4.3,85,0.00,,,0.00,WUHU216HW,2013-05-21 04:03:00,
2013-05-21 00:04:00,74.5,69.8,29.98,ESE,113,1.1,4.3,85,0.00,,,0.00,WUHU216HW,2013-05-21 04:04:00,
2013-05-21 00:09:00,74.5,69.8,29.98,ENE,68,1.8,2.7,85,0.00,,,0.00,WUHU216HW,2013-05-21 04:09:00,
2013-05-21 00:15:00,74.3,69.6,29.98,North,0,3.4,3.4,85,0.00,,,0.00,WUHU216HW,2013-05-21 04:15:00,
2013-05-21 00:20:00,74.2,69.4,29.98,ENE,68,3.4,3.4,85,0.00,,,0.00,WUHU216HW,2013-05-21 04:20:00,
2013-05-21 00:25:00,74.0,69.2,29.98,ENE,68,0.2,3.4,85,0.00,,,0.00,WUHU216HW,2013-05-21 04:25:00,
2013-05-21 00:30:00,74.0,69.2,29.98,ESE,113,1.1,2.2,85,0.00,,,0.00,WUHU216HW,2013-05-21 04:30:00,
2013-05-21 00:35:00,74.0,69.2,29.98,ESE,113,1.1,1.1,85,0.00,,,0.00,WUHU216HW,2013-05-21 04:35:00,
2013-05-21 01:30:00,74.5,69.8,29.97,ESE,113,2.0,2.0,85,0.00,,,0.00,WUHU216HW,2013-05-21 05:30:00,
2013-05-21 01:35:00,74.5,69.8,29.97,ESE,113,2.0,2.0,85,0.00,,,0.00,WUHU216HW,2013-05-21 05:35:00,
2013-05-21 02:01:00,74.3,69.6,29.96,ESE,113,1.6,1.6,85,0.00,,,0.00,WUHU216HW,2013-05-21 06:01:00,
2013-05-21 02:02:00,74.3,69.6,29.96,ESE,113,1.6,1.6,85,0.00,,,0.00,WUHU216HW,2013-05-21 06:02:00,
2013-05-21 02:07:00,74.3,69.6,29.96,ESE,113,1.6,1.6,85,0.00,,,0.00,WUHU216HW,2013-05-21 06:07:00,
2013-05-21 02:30:00,73.8,69.4,29.94,East,90,0.9,0.9,86,0.00,,,0.00,WUHU216HW,2013-05-21 06:30:00,
2013-05-21 02:31:00,73.8,69.4,29.94,East,90,0.9,0.9,86,0.00,,,0.00,WUHU216HW,2013-05-21 06:31:00,
2013-05-21 02:36:00,73.8,69.4,29.94,East,90,0.9,0.9,86,0.00,,,0.00,WUHU216HW,2013-05-21 06:36:00,
2013-05-21 03:00:00,73.6,69.2,29.94,ESE,113,2.0,2.0,86,0.00,,,0.00,WUHU216HW,2013-05-21 07:00:00,
2013-05-21 03:05:00,73.8,69.4,29.94,ESE,113,0.7,2.0,86,0.00,,,0.00,WUHU216HW,2013-05-21 07:05:00,
2013-05-21 03:10:00,73.8,69.4,29.93,ESE,113,0.4,1.6,86,0.00,,,0.00,WUHU216HW,2013-05-21 07:10:00,
2013-05-21 03:17:00,73.8,69.4,29.94,ESE,113,0.9,1.1,86,0.00,,,0.00,WUHU216HW,2013-05-21 07:17:00,
2013-05-21 03:22:00,73.8,69.4,29.93,ESE,113,0.4,0.9,86,0.00,,,0.00,WUHU216HW,2013-05-21 07:22:00,
2013-05-21 03:27:00,73.8,69.0,29.93,ESE,113,0.4,1.1,85,0.00,,,0.00,WUHU216HW,2013-05-21 07:27:00,
2013-05-21 03:32:00,73.8,69.4,29.93,SE,135,0.7,1.1,86,0.00,,,0.00,WUHU216HW,2013-05-21 07:32:00,
2013-05-21 03:39:00,73.8,69.4,29.94,ESE,113,0.9,1.1,86,0.00,,,0.00,WUHU216HW,2013-05-21 07:39:00,
2013-05-21 03:44:00,73.6,68.9,29.93,ESE,113,1.8,1.8,85,0.00,,,0.00,WUHU216HW,2013-05-21 07:44:00,
2013-05-21 03:49:00,73.6,68.9,29.94,ESE,113,1.8,1.8,85,0.00,,,0.00,WUHU216HW,2013-05-21 07:49:00,
2013-05-21 03:54:00,73.4,68.7,29.94,East,90,0.4,1.8,85,0.00,,,0.00,WUHU216HW,2013-05-21 07:54:00,
2013-05-21 03:59:00,73.4,69.0,29.94,NE,45,0.4,2.5,86,0.00,,,0.00,WUHU216HW,2013-05-21 07:59:00,
2013-05-21 04:04:00,73.3,68.9,29.94,ESE,113,0.2,2.5,86,0.00,,,0.00,WUHU216HW,2013-05-21 08:04:00,
2013-05-21 04:09:00,73.3,68.9,29.94,NE,45,1.1,1.8,86,0.00,,,0.00,WUHU216HW,2013-05-21 08:09:00,
2013-05-21 04:20:00,73.1,68.7,29.94,NE,45,0.7,1.1,86,0.00,,,0.00,WUHU216HW,2013-05-21 08:20:00,
2013-05-21 04:25:00,72.9,68.1,29.94,NE,45,0.4,0.4,85,0.00,,,0.00,WUHU216HW,2013-05-21 08:25:00,
2013-05-21 04:30:00,72.9,68.1,29.94,East,90,1.1,1.6,85,0.00,,,0.00,WUHU216HW,2013-05-21 08:30:00,
2013-05-21 04:36:00,72.9,68.1,29.94,East,90,1.1,1.6,85,0.00,,,0.00,WUHU216HW,2013-05-21 08:36:00,
2013-05-21 04:41:00,72.9,68.1,29.94,East,90,1.1,1.1,85,0.00,,,0.00,WUHU216HW,2013-05-21 08:41:00,
2013-05-21 04:46:00,72.9,68.1,29.94,ENE,68,0.7,2.5,85,0.00,,,0.00,WUHU216HW,2013-05-21 08:46:00,
2013-05-21 04:51:00,72.7,68.0,29.94,NE,45,0.9,2.5,85,0.00,,,0.00,WUHU216HW,2013-05-21 08:51:00,
2013-05-21 04:56:00,72.7,68.0,29.94,ESE,113,0.2,0.9,85,0.00,,,0.00,WUHU216HW,2013-05-21 08:56:00,
2013-05-21 05:01:00,72.7,68.0,29.94,ESE,113,0.2,1.8,85,0.00,,,0.00,WUHU216HW,2013-05-21 09:01:00,
2013-05-21 05:07:00,72.7,68.0,29.94,East,90,0.2,1.8,85,0.00,,,0.00,WUHU216HW,2013-05-21 09:07:00,
2013-05-21 05:11:00,72.7,68.0,29.94,ENE,68,0.0,0.9,85,0.00,,,0.00,WUHU216HW,2013-05-21 09:11:00,
2013-05-21 05:19:00,72.7,68.0,29.94,ESE,113,0.0,1.3,85,0.00,,,0.00,WUHU216HW,2013-05-21 09:19:00,
2013-05-21 05:24:00,72.7,68.0,29.94,East,90,0.4,0.9,85,0.01,,,0.00,WUHU216HW,2013-05-21 09:24:00,
2013-05-21 05:29:00,72.7,68.0,29.94,East,90,0.2,1.8,85,0.01,,,0.00,WUHU216HW,2013-05-21 09:29:00,
2013-05-21 05:34:00,72.7,68.0,29.94,East,90,0.4,1.8,85,0.01,,,0.00,WUHU216HW,2013-05-21 09:34:00,
2013-05-21 05:40:00,72.7,68.0,29.94,ENE,68,0.4,0.7,85,0.01,,,0.00,WUHU216HW,2013-05-21 09:40:00,
2013-05-21 05:47:00,72.5,67.8,29.94,ENE,68,1.1,1.1,85,0.01,,,0.00,WUHU216HW,2013-05-21 09:47:00,
2013-05-21 05:52:00,72.5,67.8,29.94,ENE,68,0.2,1.1,85,0.01,,,0.00,WUHU216HW,2013-05-21 09:52:00,
2013-05-21 05:57:00,72.4,67.6,29.94,ENE,68,0.9,1.8,85,0.01,,,0.00,WUHU216HW,2013-05-21 09:57:00,
2013-05-21 06:07:00,72.4,67.6,29.94,ENE,68,0.9,2.2,85,0.01,,,0.00,WUHU216HW,2013-05-21 10:07:00,
2013-05-21 06:12:00,72.2,67.8,29.95,ENE,68,2.5,2.5,86,0.01,,,0.00,WUHU216HW,2013-05-21 10:12:00,
2013-05-21 06:17:00,72.0,67.6,29.95,East,90,0.4,2.5,86,0.01,,,0.00,WUHU216HW,2013-05-21 10:17:00,
2013-05-21 06:22:00,72.0,67.6,29.95,ESE,113,1.3,1.8,86,0.00,,,0.00,WUHU216HW,2013-05-21 10:22:00,
2013-05-21 06:27:00,72.0,67.6,29.95,ESE,113,2.5,2.5,86,0.00,,,0.00,WUHU216HW,2013-05-21 10:27:00,
2013-05-21 06:32:00,72.0,67.6,29.95,SE,135,1.3,2.5,86,0.00,,,0.00,WUHU216HW,2013-05-21 10:32:00,
2013-05-21 06:37:00,72.0,67.6,29.95,East,90,0.9,2.5,86,0.00,,,0.00,WUHU216HW,2013-05-21 10:37:00,
2013-05-21 06:42:00,72.0,67.6,29.95,North,0,1.1,1.1,86,0.00,,,0.00,WUHU216HW,2013-05-21 10:42:00,
2013-05-21 06:47:00,72.0,67.6,29.96,ESE,113,0.7,1.1,86,0.00,,,0.00,WUHU216HW,2013-05-21 10:47:00,
2013-05-21 06:53:00,72.0,67.6,29.96,ENE,68,1.1,1.8,86,0.00,,,0.00,WUHU216HW,2013-05-21 10:53:00,
2013-05-21 06:58:00,72.0,67.6,29.96,NE,45,0.0,1.8,86,0.00,,,0.00,WUHU216HW,2013-05-21 10:58:00,
2013-05-21 07:03:00,71.8,67.4,29.96,ESE,113,2.2,2.2,86,0.00,,,0.00,WUHU216HW,2013-05-21 11:03:00,
2013-05-21 07:08:00,71.8,67.4,29.96,ESE,113,1.1,2.5,86,0.00,,,0.00,WUHU216HW,2013-05-21 11:08:00,
2013-05-21 07:13:00,71.8,67.4,29.96,ESE,113,1.6,2.5,86,0.00,,,0.00,WUHU216HW,2013-05-21 11:13:00,
2013-05-21 07:18:00,72.0,67.6,29.96,ESE,113,1.6,2.0,86,0.00,,,0.00,WUHU216HW,2013-05-21 11:18:00,
2013-05-21 07:23:00,72.0,67.6,29.97,ESE,113,1.3,2.0,86,0.00,,,0.00,WUHU216HW,2013-05-21 11:23:00,
2013-05-21 07:28:00,72.2,67.8,29.97,East,90,1.3,2.0,86,0.00,,,0.00,WUHU216HW,2013-05-21 11:28:00,
2013-05-21 07:33:00,72.4,68.0,29.97,SE,135,1.1,2.9,86,0.00,,,0.00,WUHU216HW,2013-05-21 11:33:00,
2013-05-21 07:42:00,72.4,68.0,29.97,ESE,113,1.1,2.2,86,0.00,,,0.00,WUHU216HW,2013-05-21 11:42:00,
2013-05-21 07:47:00,72.4,68.0,29.97,East,90,2.5,2.5,86,0.00,,,0.00,WUHU216HW,2013-05-21 11:47:00,
2013-05-21 07:52:00,72.5,68.1,29.97,East,90,2.5,2.7,86,0.00,,,0.00,WUHU216HW,2013-05-21 11:52:00,
2013-05-21 07:57:00,72.7,68.0,29.97,East,90,1.3,3.8,85,0.00,,,0.00,WUHU216HW,2013-05-21 11:57:00,
2013-05-21 08:02:00,72.7,68.3,29.97,ESE,113,3.1,3.8,86,0.00,,,0.00,WUHU216HW,2013-05-21 12:02:00,
2013-05-21 08:07:00,72.7,68.0,29.97,SE,135,1.1,3.4,85,0.00,,,0.00,WUHU216HW,2013-05-21 12:07:00,
2013-05-21 08:12:00,73.1,68.7,29.97,East,90,0.7,3.8,86,0.00,,,0.00,WUHU216HW,2013-05-21 12:12:00,
2013-05-21 08:17:00,73.1,68.7,29.97,East,90,1.1,3.8,86,0.00,,,0.00,WUHU216HW,2013-05-21 12:17:00,
2013-05-21 08:23:00,73.3,68.9,29.97,SE,135,1.8,1.8,86,0.00,,,0.00,WUHU216HW,2013-05-21 12:23:00,
2013-05-21 08:28:00,73.6,69.2,29.97,ESE,113,2.2,2.2,86,0.00,,,0.00,WUHU216HW,2013-05-21 12:28:00,
2013-05-21 08:33:00,73.6,69.2,29.97,SE,135,1.1,4.7,86,0.00,,,0.00,WUHU216HW,2013-05-21 12:33:00,
2013-05-21 08:38:00,74.0,69.6,29.98,East,90,1.6,4.7,86,0.00,,,0.00,WUHU216HW,2013-05-21 12:38:00,
2013-05-21 08:44:00,74.2,69.8,29.98,ESE,113,1.8,3.1,86,0.00,,,0.00,WUHU216HW,2013-05-21 12:44:00,
2013-05-21 08:49:00,74.5,70.1,29.98,East,90,1.6,3.1,86,0.00,,,0.00,WUHU216HW,2013-05-21 12:49:00,
2013-05-21 08:54:00,74.5,70.1,29.98,SE,135,0.7,3.1,86,0.00,,,0.00,WUHU216HW,2013-05-21 12:54:00,
2013-05-21 08:59:00,74.5,70.1,29.98,SE,135,0.7,0.9,86,0.00,,,0.00,WUHU216HW,2013-05-21 12:59:00,
2013-05-21 09:00:00,75.1,70.3,29.98,ESE,113,1.8,1.8,85,0.00,,,0.00,WUHU216HW,2013-05-21 13:00:00,
2013-05-21 09:04:00,75.1,70.3,29.98,ESE,113,1.8,1.8,85,0.00,,,0.00,WUHU216HW,2013-05-21 13:04:00,
2013-05-21 09:09:00,75.1,70.3,29.98,ESE,113,1.8,1.8,85,0.00,,,0.00,WUHU216HW,2013-05-21 13:09:00,
2013-05-21 09:30:00,77.2,72.4,29.98,SE,135,1.8,1.8,85,0.00,,,0.00,WUHU216HW,2013-05-21 13:30:00,
2013-05-21 09:35:00,77.8,72.5,29.98,ESE,113,1.6,3.4,84,0.00,,,0.00,WUHU216HW,2013-05-21 13:35:00,
2013-05-21 09:40:00,78.1,72.9,29.98,ESE,113,1.8,3.4,84,0.00,,,0.00,WUHU216HW,2013-05-21 13:40:00,
2013-05-21 09:46:00,78.5,72.9,29.98,SE,135,3.1,3.4,83,0.00,,,0.00,WUHU216HW,2013-05-21 13:46:00,
2013-05-21 09:51:00,79.0,73.1,29.98,NNW,338,2.9,3.4,82,0.00,,,0.00,WUHU216HW,2013-05-21 13:51:00,
2013-05-21 09:56:00,78.8,72.9,29.98,ESE,113,3.4,4.5,82,0.00,,,0.00,WUHU216HW,2013-05-21 13:56:00,
2013-05-21 10:02:00,79.0,72.7,29.98,NE,45,0.9,4.5,81,0.00,,,0.00,WUHU216HW,2013-05-21 14:02:00,
2013-05-21 10:07:00,79.4,73.1,29.98,East,90,2.2,2.7,81,0.00,,,0.00,WUHU216HW,2013-05-21 14:07:00,
2013-05-21 10:12:00,79.7,73.5,29.98,NNE,23,0.9,2.2,81,0.00,,,0.00,WUHU216HW,2013-05-21 14:12:00,
2013-05-21 10:17:00,81.0,74.3,29.99,ESE,113,2.5,2.5,80,0.00,,,0.00,WUHU216HW,2013-05-21 14:17:00,
2013-05-21 10:22:00,81.5,74.4,29.99,SSE,158,3.6,5.1,79,0.00,,,0.00,WUHU216HW,2013-05-21 14:22:00,
2013-05-21 10:27:00,81.9,74.4,29.98,East,90,1.8,5.1,78,0.00,,,0.00,WUHU216HW,2013-05-21 14:27:00,
2013-05-21 10:34:00,82.4,74.5,29.98,ESE,113,1.6,3.6,77,0.00,,,0.00,WUHU216HW,2013-05-21 14:34:00,
2013-05-21 10:39:00,83.0,75.1,29.99,ESE,113,3.4,5.1,77,0.00,,,0.00,WUHU216HW,2013-05-21 14:39:00,
2013-05-21 10:44:00,83.2,74.8,29.98,SE,135,1.8,5.1,76,0.00,,,0.00,WUHU216HW,2013-05-21 14:44:00,
2013-05-21 10:49:00,83.3,74.2,29.98,SE,135,3.8,4.7,74,0.00,,,0.00,WUHU216HW,2013-05-21 14:49:00,
2013-05-21 10:54:00,83.5,74.7,29.98,ESE,113,2.2,4.0,75,0.00,,,0.00,WUHU216HW,2013-05-21 14:54:00,
2013-05-21 10:59:00,84.2,75.1,29.98,South,180,3.8,3.8,74,0.00,,,0.00,WUHU216HW,2013-05-21 14:59:00,
2013-05-21 11:04:00,84.4,74.8,29.98,ESE,113,3.8,3.8,73,0.00,,,0.00,WUHU216HW,2013-05-21 15:04:00,
2013-05-21 11:09:00,84.4,74.8,29.98,SE,135,1.6,3.8,73,0.00,,,0.00,WUHU216HW,2013-05-21 15:09:00,
2013-05-21 11:14:00,85.0,74.5,29.99,ESE,113,2.9,4.7,71,0.00,,,0.00,WUHU216HW,2013-05-21 15:14:00,
2013-05-21 11:19:00,85.3,75.3,29.98,SE,135,2.2,4.7,72,0.00,,,0.00,WUHU216HW,2013-05-21 15:19:00,
2013-05-21 11:26:00,85.5,74.7,29.98,ESE,113,4.0,4.0,70,0.00,,,0.00,WUHU216HW,2013-05-21 15:26:00,
2013-05-21 11:31:00,85.9,75.4,29.98,SE,135,1.3,4.0,71,0.00,,,0.00,WUHU216HW,2013-05-21 15:31:00,
2013-05-21 11:36:00,86.0,73.8,29.98,SSE,158,4.0,4.0,67,0.00,,,0.00,WUHU216HW,2013-05-21 15:36:00,
2013-05-21 11:41:00,86.4,75.6,29.98,NE,45,1.6,4.0,70,0.00,,,0.00,WUHU216HW,2013-05-21 15:41:00,
2013-05-21 11:46:00,86.2,75.4,29.98,SE,135,2.5,4.0,70,0.00,,,0.00,WUHU216HW,2013-05-21 15:46:00,
2013-05-21 11:53:00,86.2,75.0,29.98,ESE,113,1.8,2.5,69,0.00,,,0.00,WUHU216HW,2013-05-21 15:53:00,
2013-05-21 11:58:00,86.4,74.2,29.98,SE,135,1.8,3.4,67,0.00,,,0.00,WUHU216HW,2013-05-21 15:58:00,
2013-05-21 12:03:00,87.1,75.3,29.98,ESE,113,2.0,3.4,68,0.00,,,0.00,WUHU216HW,2013-05-21 16:03:00,
2013-05-21 12:08:00,87.3,75.0,29.98,East,90,1.8,3.4,67,0.00,,,0.00,WUHU216HW,2013-05-21 16:08:00,
2013-05-21 12:13:00,87.5,74.7,29.97,NW,315,1.8,3.4,66,0.00,,,0.00,WUHU216HW,2013-05-21 16:13:00,
2013-05-21 12:18:00,87.5,75.2,29.98,SSE,158,0.4,4.7,67,0.00,,,0.00,WUHU216HW,2013-05-21 16:18:00,
2013-05-21 12:24:00,87.8,75.5,29.97,ESE,113,0.9,4.7,67,0.00,,,0.00,WUHU216HW,2013-05-21 16:24:00,
2013-05-21 12:29:00,87.1,74.3,29.97,East,90,0.9,3.8,66,0.00,,,0.00,WUHU216HW,2013-05-21 16:29:00,
2013-05-21 12:34:00,86.6,73.9,29.97,NE,45,0.4,5.1,66,0.00,,,0.00,WUHU216HW,2013-05-21 16:34:00,
2013-05-21 12:39:00,86.6,75.2,29.97,South,180,1.3,5.1,69,0.00,,,0.00,WUHU216HW,2013-05-21 16:39:00,
2013-05-21 12:44:00,86.8,74.5,29.97,SSE,158,1.3,2.7,67,0.00,,,0.00,WUHU216HW,2013-05-21 16:44:00,
2013-05-21 12:50:00,87.3,76.0,29.96,SW,225,0.7,2.7,69,0.00,,,0.00,WUHU216HW,2013-05-21 16:50:00,
2013-05-21 12:55:00,87.3,76.4,29.96,SW,225,1.6,1.6,70,0.01,,,0.01,WUHU216HW,2013-05-21 16:55:00,
2013-05-21 13:00:00,87.1,76.6,29.96,SW,225,0.4,2.5,71,0.01,,,0.01,WUHU216HW,2013-05-21 17:00:00,
2013-05-21 13:07:00,86.6,76.2,29.96,NW,315,0.4,2.5,71,0.01,,,0.01,WUHU216HW,2013-05-21 17:07:00,
2013-05-21 13:12:00,86.0,76.1,29.96,West,270,0.4,2.0,72,0.01,,,0.01,WUHU216HW,2013-05-21 17:12:00,
2013-05-21 13:17:00,85.3,75.7,29.96,WSW,248,0.4,1.3,73,0.01,,,0.01,WUHU216HW,2013-05-21 17:17:00,
2013-05-21 13:23:00,85.0,75.3,29.95,West,270,0.4,1.3,73,0.01,,,0.01,WUHU216HW,2013-05-21 17:23:00,
2013-05-21 13:28:00,84.4,75.6,29.95,NNW,338,1.8,3.1,75,0.01,,,0.01,WUHU216HW,2013-05-21 17:28:00,
2013-05-21 13:33:00,84.1,75.2,29.95,NW,315,3.4,3.4,75,0.01,,,0.01,WUHU216HW,2013-05-21 17:33:00,
2013-05-21 13:38:00,83.9,75.1,29.94,NW,315,5.6,5.6,75,0.01,,,0.01,WUHU216HW,2013-05-21 17:38:00,
2013-05-21 13:43:00,83.5,74.7,29.94,West,270,2.5,5.6,75,0.01,,,0.01,WUHU216HW,2013-05-21 17:43:00,
2013-05-21 13:48:00,83.3,74.6,29.94,North,0,3.6,5.1,75,0.00,,,0.01,WUHU216HW,2013-05-21 17:48:00,
2013-05-21 13:53:00,83.2,74.4,29.94,NNW,338,2.9,5.1,75,0.00,,,0.01,WUHU216HW,2013-05-21 17:53:00,
2013-05-21 13:58:00,83.0,74.3,29.94,NNW,338,1.3,4.5,75,0.00,,,0.01,WUHU216HW,2013-05-21 17:58:00,
2013-05-21 14:03:00,83.2,74.4,29.93,North,0,3.1,4.3,75,0.00,,,0.01,WUHU216HW,2013-05-21 18:03:00,
2013-05-21 14:11:00,83.2,74.4,29.94,North,0,3.4,4.3,75,0.00,,,0.01,WUHU216HW,2013-05-21 18:11:00,
2013-05-21 14:16:00,83.0,74.3,29.93,North,0,2.0,3.4,75,0.00,,,0.01,WUHU216HW,2013-05-21 18:16:00,
2013-05-21 14:24:00,83.0,74.3,29.92,NNW,338,3.4,3.4,75,0.00,,,0.01,WUHU216HW,2013-05-21 18:24:00,
2013-05-21 14:30:00,83.2,74.4,29.93,West,270,1.8,3.4,75,0.00,,,0.01,WUHU216HW,2013-05-21 18:30:00,
2013-05-21 14:35:00,83.2,74.4,29.93,West,270,1.8,2.9,75,0.00,,,0.01,WUHU216HW,2013-05-21 18:35:00,
2013-05-21 14:40:00,83.3,74.6,29.93,NE,45,0.0,2.7,75,0.00,,,0.01,WUHU216HW,2013-05-21 18:40:00,
2013-05-21 14:45:00,83.5,74.4,29.93,NW,315,0.9,3.4,74,0.00,,,0.01,WUHU216HW,2013-05-21 18:45:00,
2013-05-21 14:50:00,83.9,73.9,29.92,NNW,338,0.9,3.4,72,0.00,,,0.01,WUHU216HW,2013-05-21 18:50:00,
2013-05-21 14:55:00,84.2,74.3,29.91,WNW,293,4.0,4.0,72,0.00,,,0.01,WUHU216HW,2013-05-21 18:55:00,
2013-05-21 15:00:00,84.6,74.6,29.91,South,180,1.6,4.0,72,0.00,,,0.01,WUHU216HW,2013-05-21 19:00:00,
2013-05-21 15:05:00,85.0,74.5,29.91,SE,135,1.6,4.0,71,0.00,,,0.01,WUHU216HW,2013-05-21 19:05:00,
2013-05-21 15:10:00,85.5,74.3,29.91,WSW,248,3.4,3.4,69,0.00,,,0.01,WUHU216HW,2013-05-21 19:10:00,
2013-05-21 15:15:00,86.0,74.8,29.90,WSW,248,0.2,3.4,69,0.00,,,0.01,WUHU216HW,2013-05-21 19:15:00,
2013-05-21 15:21:00,86.2,74.4,29.89,NNW,338,1.8,3.4,68,0.00,,,0.01,WUHU216HW,2013-05-21 19:21:00,
2013-05-21 15:26:00,86.2,74.4,29.89,WNW,293,0.2,4.0,68,0.00,,,0.01,WUHU216HW,2013-05-21 19:26:00,
2013-05-21 15:31:00,86.6,74.8,29.89,SW,225,2.7,3.4,68,0.00,,,0.01,WUHU216HW,2013-05-21 19:31:00,
2013-05-21 15:36:00,86.9,75.2,29.88,SSW,203,0.4,3.4,68,0.00,,,0.01,WUHU216HW,2013-05-21 19:36:00,
2013-05-21 15:41:00,87.5,75.2,29.89,WSW,248,1.6,3.1,67,0.00,,,0.01,WUHU216HW,2013-05-21 19:41:00,
2013-05-21 15:48:00,87.5,75.2,29.88,SW,225,0.7,3.1,67,0.00,,,0.01,WUHU216HW,2013-05-21 19:48:00,
2013-05-21 15:53:00,87.5,75.2,29.89,West,270,2.0,2.9,67,0.00,,,0.01,WUHU216HW,2013-05-21 19:53:00,
2013-05-21 15:58:00,87.5,74.7,29.89,WSW,248,0.9,2.0,66,0.00,,,0.01,WUHU216HW,2013-05-21 19:58:00,
2013-05-21 16:04:00,87.5,74.7,29.89,South,180,1.6,3.6,66,0.00,,,0.01,WUHU216HW,2013-05-21 20:04:00,
2013-05-21 16:09:00,87.5,74.7,29.89,SW,225,1.1,3.6,66,0.00,,,0.01,WUHU216HW,2013-05-21 20:09:00,
2013-05-21 16:14:00,87.8,75.1,29.88,WNW,293,1.1,3.1,66,0.00,,,0.01,WUHU216HW,2013-05-21 20:14:00,
2013-05-21 16:19:00,88.0,75.3,29.88,SSW,203,2.5,3.1,66,0.00,,,0.01,WUHU216HW,2013-05-21 20:19:00,
2013-05-21 16:27:00,88.2,75.0,29.89,South,180,1.8,2.7,65,0.00,,,0.01,WUHU216HW,2013-05-21 20:27:00,
2013-05-21 16:32:00,88.6,74.9,29.89,SE,135,2.5,2.5,64,0.00,,,0.01,WUHU216HW,2013-05-21 20:32:00,
2013-05-21 16:37:00,87.8,73.3,29.89,ESE,113,6.0,6.5,62,0.00,,,0.01,WUHU216HW,2013-05-21 20:37:00,
2013-05-21 16:42:00,86.0,72.5,29.89,East,90,1.8,8.1,64,0.00,,,0.01,WUHU216HW,2013-05-21 20:42:00,
2013-05-21 16:48:00,84.6,72.5,29.90,SE,135,1.8,8.1,67,0.00,,,0.01,WUHU216HW,2013-05-21 20:48:00,
2013-05-21 16:53:00,84.2,72.5,29.90,SSE,158,3.4,6.3,68,0.00,,,0.01,WUHU216HW,2013-05-21 20:53:00,
2013-05-21 16:58:00,84.4,72.3,29.90,ESE,113,4.7,4.7,67,0.00,,,0.01,WUHU216HW,2013-05-21 20:58:00,
2013-05-21 17:03:00,84.6,72.5,29.89,ESE,113,2.7,4.7,67,0.00,,,0.01,WUHU216HW,2013-05-21 21:03:00,
2013-05-21 17:08:00,84.2,71.2,29.89,North,0,1.1,4.5,65,0.00,,,0.01,WUHU216HW,2013-05-21 21:08:00,
2013-05-21 17:13:00,83.5,70.9,29.89,ESE,113,3.1,5.1,66,0.00,,,0.01,WUHU216HW,2013-05-21 21:13:00,
2013-05-21 17:18:00,83.9,71.3,29.89,ESE,113,1.8,5.1,66,0.00,,,0.01,WUHU216HW,2013-05-21 21:18:00,
2013-05-21 17:24:00,84.4,70.5,29.89,ESE,113,2.0,3.1,63,0.00,,,0.01,WUHU216HW,2013-05-21 21:24:00,
2013-05-21 17:30:00,84.6,70.7,29.89,SE,135,0.9,3.1,63,0.00,,,0.01,WUHU216HW,2013-05-21 21:30:00,
2013-05-21 17:35:00,85.1,69.8,29.88,SSE,158,2.5,4.3,60,0.00,,,0.01,WUHU216HW,2013-05-21 21:35:00,
2013-05-21 17:40:00,85.0,69.6,29.89,South,180,1.1,3.8,60,0.00,,,0.01,WUHU216HW,2013-05-21 21:40:00,
2013-05-21 17:45:00,85.0,70.0,29.89,SSE,158,2.5,2.9,61,0.00,,,0.01,WUHU216HW,2013-05-21 21:45:00,
2013-05-21 17:50:00,85.1,71.1,29.89,ESE,113,1.1,2.5,63,0.00,,,0.01,WUHU216HW,2013-05-21 21:50:00,
2013-05-21 17:55:00,85.0,71.5,29.89,North,0,1.6,1.6,64,0.00,,,0.01,WUHU216HW,2013-05-21 21:55:00,
2013-05-21 18:00:00,84.6,71.1,29.89,ESE,113,2.2,2.2,64,0.00,,,0.01,WUHU216HW,2013-05-21 22:00:00,
2013-05-21 18:05:00,84.4,70.9,29.90,ESE,113,1.3,2.5,64,0.00,,,0.01,WUHU216HW,2013-05-21 22:05:00,
2013-05-21 18:11:00,84.1,70.1,29.91,ENE,68,2.2,2.5,63,0.00,,,0.01,WUHU216HW,2013-05-21 22:11:00,
2013-05-21 18:16:00,83.5,70.0,29.91,North,0,2.0,4.0,64,0.00,,,0.01,WUHU216HW,2013-05-21 22:16:00,
2013-05-21 18:21:00,83.0,69.0,29.90,North,0,3.1,4.0,63,0.00,,,0.01,WUHU216HW,2013-05-21 22:21:00,
2013-05-21 18:27:00,82.6,70.0,29.91,North,0,2.5,3.4,66,0.00,,,0.01,WUHU216HW,2013-05-21 22:27:00,
2013-05-21 18:32:00,82.6,70.0,29.91,North,0,2.5,2.5,66,0.00,,,0.01,WUHU216HW,2013-05-21 22:32:00,
2013-05-21 18:37:00,82.1,69.5,29.91,North,0,2.9,4.3,66,0.00,,,0.01,WUHU216HW,2013-05-21 22:37:00,
2013-05-21 18:42:00,82.1,69.5,29.91,North,0,2.5,4.3,66,0.00,,,0.01,WUHU216HW,2013-05-21 22:42:00,
2013-05-21 18:48:00,82.1,69.5,29.91,ENE,68,1.3,3.8,66,0.00,,,0.01,WUHU216HW,2013-05-21 22:48:00,
2013-05-21 18:53:00,81.9,70.3,29.91,ENE,68,2.0,4.9,68,0.00,,,0.01,WUHU216HW,2013-05-21 22:53:00,
2013-05-21 18:58:00,81.7,70.1,29.91,NNE,23,2.9,4.9,68,0.00,,,0.01,WUHU216HW,2013-05-21 22:58:00,
2013-05-21 19:03:00,81.4,70.2,29.91,North,0,7.6,7.6,69,0.00,,,0.01,WUHU216HW,2013-05-21 23:03:00,
2013-05-21 19:08:00,80.6,69.1,29.92,NNE,23,3.1,7.6,68,0.00,,,0.01,WUHU216HW,2013-05-21 23:08:00,
2013-05-21 19:13:00,80.1,69.5,29.92,NE,45,2.0,5.1,70,0.00,,,0.01,WUHU216HW,2013-05-21 23:13:00,
2013-05-21 19:19:00,79.2,68.9,29.92,NNW,338,4.0,4.9,71,0.00,,,0.01,WUHU216HW,2013-05-21 23:19:00,
2013-05-21 19:24:00,78.8,68.6,29.91,East,90,2.5,4.9,71,0.00,,,0.01,WUHU216HW,2013-05-21 23:24:00,
2013-05-21 19:30:00,78.8,68.6,29.92,NNE,23,3.1,3.6,71,0.00,,,0.01,WUHU216HW,2013-05-21 23:30:00,
2013-05-21 19:35:00,78.1,69.5,29.92,NE,45,3.8,5.8,75,0.00,,,0.01,WUHU216HW,2013-05-21 23:35:00,
2013-05-21 19:40:00,77.8,69.2,29.92,NE,45,4.9,5.8,75,0.00,,,0.01,WUHU216HW,2013-05-21 23:40:00,
2013-05-21 19:45:00,77.4,69.2,29.92,NNE,23,2.7,5.1,76,0.00,,,0.01,WUHU216HW,2013-05-21 23:45:00,
2013-05-21 19:50:00,77.6,69.8,29.92,SE,135,3.1,3.8,77,0.00,,,0.01,WUHU216HW,2013-05-21 23:50:00,
2013-05-21 19:56:00,77.2,69.9,29.92,SE,135,1.1,3.4,78,0.00,,,0.01,WUHU216HW,2013-05-21 23:56:00,
2013-05-21 20:01:00,77.0,69.7,29.92,ESE,113,2.2,3.4,78,0.00,,,0.01,WUHU216HW,2013-05-22 00:01:00,
2013-05-21 20:06:00,76.7,69.7,29.93,NNE,23,2.9,2.9,79,0.00,,,0.01,WUHU216HW,2013-05-22 00:06:00,
2013-05-21 20:11:00,76.7,69.7,29.93,North,0,1.8,4.0,79,0.00,,,0.01,WUHU216HW,2013-05-22 00:11:00,
2013-05-21 20:16:00,76.3,69.4,29.93,NE,45,1.8,4.0,79,0.00,,,0.01,WUHU216HW,2013-05-22 00:16:00,
2013-05-21 20:21:00,76.1,69.2,29.94,ESE,113,2.2,3.1,79,0.00,,,0.01,WUHU216HW,2013-05-22 00:21:00,
2013-05-21 20:26:00,76.3,69.4,29.94,SE,135,3.1,4.7,79,0.00,,,0.01,WUHU216HW,2013-05-22 00:26:00,
2013-05-21 20:31:00,76.7,69.3,29.95,SSE,158,2.0,4.7,78,0.00,,,0.01,WUHU216HW,2013-05-22 00:31:00,
2013-05-21 20:36:00,77.0,69.7,29.95,ESE,113,2.0,4.0,78,0.00,,,0.01,WUHU216HW,2013-05-22 00:36:00,
2013-05-21 20:42:00,77.2,69.9,29.94,SE,135,0.9,4.0,78,0.00,,,0.01,WUHU216HW,2013-05-22 00:42:00,
2013-05-21 20:47:00,77.4,69.6,29.94,SE,135,2.0,4.7,77,0.00,,,0.01,WUHU216HW,2013-05-22 00:47:00,
2013-05-21 20:52:00,77.2,69.9,29.93,SE,135,1.1,4.7,78,0.00,,,0.01,WUHU216HW,2013-05-22 00:52:00,
2013-05-21 20:57:00,76.9,69.5,29.92,NE,45,1.3,4.5,78,0.00,,,0.01,WUHU216HW,2013-05-22 00:57:00,
2013-05-21 21:02:00,76.7,69.3,29.93,ESE,113,4.0,4.0,78,0.00,,,0.01,WUHU216HW,2013-05-22 01:02:00,
2013-05-21 21:07:00,76.7,69.3,29.93,SE,135,1.3,4.0,78,0.00,,,0.01,WUHU216HW,2013-05-22 01:07:00,
2013-05-21 21:12:00,76.7,69.3,29.94,East,90,2.5,2.7,78,0.00,,,0.01,WUHU216HW,2013-05-22 01:12:00,
2013-05-21 21:17:00,76.7,69.3,29.94,SE,135,2.2,3.4,78,0.00,,,0.01,WUHU216HW,2013-05-22 01:17:00,
2013-05-21 21:23:00,76.7,69.3,29.94,East,90,1.3,3.4,78,0.00,,,0.01,WUHU216HW,2013-05-22 01:23:00,
2013-05-21 21:28:00,76.7,69.3,29.94,ESE,113,1.3,3.4,78,0.00,,,0.01,WUHU216HW,2013-05-22 01:28:00,
2013-05-21 21:33:00,76.5,69.1,29.94,ESE,113,2.5,3.4,78,0.00,,,0.01,WUHU216HW,2013-05-22 01:33:00,
2013-05-21 21:38:00,76.3,68.9,29.94,NE,45,1.8,3.4,78,0.00,,,0.01,WUHU216HW,2013-05-22 01:38:00,
2013-05-21 21:43:00,76.0,68.7,29.94,East,90,1.8,2.7,78,0.00,,,0.01,WUHU216HW,2013-05-22 01:43:00,
2013-05-21 21:48:00,76.0,68.7,29.94,ENE,68,1.8,2.5,78,0.00,,,0.01,WUHU216HW,2013-05-22 01:48:00,
2013-05-21 21:53:00,76.0,68.7,29.94,ENE,68,1.8,2.5,78,0.00,,,0.01,WUHU216HW,2013-05-22 01:53:00,
2013-05-21 22:00:00,75.8,68.9,29.94,NE,45,1.1,1.1,79,0.00,,,0.01,WUHU216HW,2013-05-22 02:00:00,
2013-05-21 22:05:00,75.6,68.7,29.94,East,90,2.2,2.2,79,0.00,,,0.01,WUHU216HW,2013-05-22 02:05:00,
2013-05-21 22:10:00,75.4,69.0,29.94,ENE,68,1.1,2.2,80,0.00,,,0.01,WUHU216HW,2013-05-22 02:10:00,
2013-05-21 22:15:00,75.2,68.8,29.94,ENE,68,0.7,3.4,80,0.00,,,0.01,WUHU216HW,2013-05-22 02:15:00,
2013-05-21 22:20:00,75.2,68.8,29.94,ESE,113,2.0,4.9,80,0.00,,,0.01,WUHU216HW,2013-05-22 02:20:00,
2013-05-21 22:25:00,75.2,68.8,29.94,East,90,0.4,4.9,80,0.00,,,0.01,WUHU216HW,2013-05-22 02:25:00,
2013-05-21 22:31:00,75.2,68.8,29.94,ENE,68,0.9,1.8,80,0.00,,,0.01,WUHU216HW,2013-05-22 02:31:00,
2013-05-21 22:36:00,75.1,68.6,29.94,NE,45,3.4,3.4,80,0.00,,,0.01,WUHU216HW,2013-05-22 02:36:00,
2013-05-21 22:42:00,74.9,68.4,29.94,East,90,1.8,3.4,80,0.00,,,0.01,WUHU216HW,2013-05-22 02:42:00,
2013-05-21 22:47:00,74.9,68.4,29.94,North,0,0.0,2.9,80,0.00,,,0.01,WUHU216HW,2013-05-22 02:47:00,
2013-05-21 22:52:00,75.1,69.0,29.94,ENE,68,2.7,2.9,81,0.00,,,0.01,WUHU216HW,2013-05-22 02:52:00,
2013-05-21 22:57:00,75.1,69.0,29.94,NE,45,0.9,2.7,81,0.00,,,0.01,WUHU216HW,2013-05-22 02:57:00,
2013-05-21 23:02:00,74.9,68.8,29.94,East,90,1.3,2.2,81,0.00,,,0.01,WUHU216HW,2013-05-22 03:02:00,
2013-05-21 23:07:00,74.9,68.8,29.94,ENE,68,0.7,3.1,81,0.00,,,0.01,WUHU216HW,2013-05-22 03:07:00,
2013-05-21 23:12:00,74.9,68.8,29.93,ENE,68,0.4,3.1,81,0.00,,,0.01,WUHU216HW,2013-05-22 03:12:00,
2013-05-21 23:18:00,74.9,68.8,29.93,SE,135,1.3,1.6,81,0.00,,,0.01,WUHU216HW,2013-05-22 03:18:00,
2013-05-21 23:22:00,74.9,68.8,29.93,ESE,113,1.8,2.0,81,0.00,,,0.01,WUHU216HW,2013-05-22 03:22:00,
2013-05-21 23:28:00,74.9,68.8,29.93,ENE,68,1.6,2.0,81,0.00,,,0.01,WUHU216HW,2013-05-22 03:28:00,
2013-05-21 23:33:00,74.9,68.8,29.93,ENE,68,1.6,2.2,81,0.00,,,0.01,WUHU216HW,2013-05-22 03:33:00,
2013-05-21 23:38:00,74.7,68.6,29.93,East,90,1.8,2.2,81,0.00,,,0.01,WUHU216HW,2013-05-22 03:38:00,
2013-05-21 23:43:00,74.5,68.4,29.93,ESE,113,1.8,2.9,81,0.00,,,0.01,WUHU216HW,2013-05-22 03:43:00,
2013-05-21 23:48:00,74.5,68.4,29.93,East,90,1.8,2.9,81,0.00,,,0.01,WUHU216HW,2013-05-22 03:48:00,
2013-05-21 23:53:00,74.5,68.4,29.93,ESE,113,0.9,2.5,81,0.00,,,0.01,WUHU216HW,2013-05-22 03:53:00,
2013-05-21 23:58:00,74.5,68.4,29.92,SE,135,0.0,2.5,81,0.00,,,0.01,WUHU216HW,2013-05-22 03:58:00,